sensor_id;sensor_type;location;lat;lon;timestamp;temperature;humidity
6307;DHT22;3186;54.062;9.962;2023-02-17T00:01:24;7.80;99.90
6307;DHT22;3186;54.062;9.962;2023-02-17T00:03:51;7.70;99.90
6307;DHT22;3186;54.062;9.962;2023-02-17T00:06:20;7.80;99.90
6307;DHT22;3186;54.062;9.962;2023-02-17T00:08:46;7.70;99.90
6307;DHT22;3186;54.062;9.962;2023-02-17T00:11:13;7.70;99.90
6307;DHT22;3186;54.062;9.962;2023-02-17T00:13:39;7.80;99.90
6307;DHT22;3186;54.062;9.962;2023-02-17T00:16:11;7.90;99.90
6307;DHT22;3186;54.062;9.962;2023-02-17T00:18:37;7.90;99.90
6307;DHT22;3186;54.062;9.962;2023-02-17T00:21:32;8.00;99.90
6307;DHT22;3186;54.062;9.962;2023-02-17T00:23:59;8.00;99.90
6307;DHT22;3186;54.062;9.962;2023-02-17T00:26:25;8.00;99.90
6307;DHT22;3186;54.062;9.962;2023-02-17T00:28:50;7.90;99.90
6307;DHT22;3186;54.062;9.962;2023-02-17T00:31:19;7.90;99.90
6307;DHT22;3186;54.062;9.962;2023-02-17T00:33:45;7.90;99.90
6307;DHT22;3186;54.062;9.962;2023-02-17T00:36:13;8.00;99.90
6307;DHT22;3186;54.062;9.962;2023-02-17T00:38:39;8.00;99.90
6307;DHT22;3186;54.062;9.962;2023-02-17T00:41:05;8.00;99.90
6307;DHT22;3186;54.062;9.962;2023-02-17T00:43:31;7.80;99.90
6307;DHT22;3186;54.062;9.962;2023-02-17T00:45:57;7.90;99.90
6307;DHT22;3186;54.062;9.962;2023-02-17T00:48:23;8.00;99.90
6307;DHT22;3186;54.062;9.962;2023-02-17T00:50:48;7.90;99.90
6307;DHT22;3186;54.062;9.962;2023-02-17T00:53:14;7.90;99.90
6307;DHT22;3186;54.062;9.962;2023-02-17T00:55:40;7.90;99.90
6307;DHT22;3186;54.062;9.962;2023-02-17T00:58:07;7.90;99.90
6307;DHT22;3186;54.062;9.962;2023-02-17T01:00:33;8.00;99.90
6307;DHT22;3186;54.062;9.962;2023-02-17T01:02:59;8.10;99.90
6307;DHT22;3186;54.062;9.962;2023-02-17T01:05:25;8.10;99.90
6307;DHT22;3186;54.062;9.962;2023-02-17T01:07:51;7.90;99.90
6307;DHT22;3186;54.062;9.962;2023-02-17T01:10:17;8.10;99.90
6307;DHT22;3186;54.062;9.962;2023-02-17T01:12:43;8.00;99.90
6307;DHT22;3186;54.062;9.962;2023-02-17T01:15:09;8.00;99.90
6307;DHT22;3186;54.062;9.962;2023-02-17T01:17:35;8.00;99.90
6307;DHT22;3186;54.062;9.962;2023-02-17T01:20:01;8.10;99.90
6307;DHT22;3186;54.062;9.962;2023-02-17T01:22:27;8.10;99.90
6307;DHT22;3186;54.062;9.962;2023-02-17T01:24:54;8.10;99.90
6307;DHT22;3186;54.062;9.962;2023-02-17T01:27:19;8.10;99.90
6307;DHT22;3186;54.062;9.962;2023-02-17T01:29:46;8.10;99.90
6307;DHT22;3186;54.062;9.962;2023-02-17T01:32:12;8.20;99.90
6307;DHT22;3186;54.062;9.962;2023-02-17T01:34:38;8.30;99.90
6307;DHT22;3186;54.062;9.962;2023-02-17T01:37:05;8.10;99.90
6307;DHT22;3186;54.062;9.962;2023-02-17T01:39:34;8.10;99.90
6307;DHT22;3186;54.062;9.962;2023-02-17T01:42:00;8.10;99.90
6307;DHT22;3186;54.062;9.962;2023-02-17T01:44:26;8.20;99.90
6307;DHT22;3186;54.062;9.962;2023-02-17T01:46:56;8.10;99.90
6307;DHT22;3186;54.062;9.962;2023-02-17T01:49:24;8.10;99.90
6307;DHT22;3186;54.062;9.962;2023-02-17T01:54:38;8.20;99.90
6307;DHT22;3186;54.062;9.962;2023-02-17T01:57:07;8.20;99.90
6307;DHT22;3186;54.062;9.962;2023-02-17T01:59:34;8.20;99.90
6307;DHT22;3186;54.062;9.962;2023-02-17T02:02:03;8.20;99.90
6307;DHT22;3186;54.062;9.962;2023-02-17T02:04:33;8.20;99.90
6307;DHT22;3186;54.062;9.962;2023-02-17T02:07:02;8.20;99.90
6307;DHT22;3186;54.062;9.962;2023-02-17T02:09:46;8.20;99.90
6307;DHT22;3186;54.062;9.962;2023-02-17T02:12:31;8.30;99.90
6307;DHT22;3186;54.062;9.962;2023-02-17T02:35:04;8.40;99.90
6307;DHT22;3186;54.062;9.962;2023-02-17T02:37:37;8.40;99.90
6307;DHT22;3186;54.062;9.962;2023-02-17T02:40:07;8.40;99.90
6307;DHT22;3186;54.062;9.962;2023-02-17T02:42:35;8.40;99.90
6307;DHT22;3186;54.062;9.962;2023-02-17T02:45:01;8.40;99.90
6307;DHT22;3186;54.062;9.962;2023-02-17T02:47:46;8.40;99.90
6307;DHT22;3186;54.062;9.962;2023-02-17T03:01:33;8.50;99.90
6307;DHT22;3186;54.062;9.962;2023-02-17T03:09:32;8.50;99.90
6307;DHT22;3186;54.062;9.962;2023-02-17T03:11:59;8.60;99.90
6307;DHT22;3186;54.062;9.962;2023-02-17T03:14:26;8.60;99.90
6307;DHT22;3186;54.062;9.962;2023-02-17T03:16:53;8.60;99.90
6307;DHT22;3186;54.062;9.962;2023-02-17T03:19:23;8.60;99.90
6307;DHT22;3186;54.062;9.962;2023-02-17T03:22:04;8.60;99.90
6307;DHT22;3186;54.062;9.962;2023-02-17T03:24:33;8.70;99.90
6307;DHT22;3186;54.062;9.962;2023-02-17T03:26:59;8.70;99.90
6307;DHT22;3186;54.062;9.962;2023-02-17T03:29:25;8.60;99.90
6307;DHT22;3186;54.062;9.962;2023-02-17T03:31:51;8.70;99.90
6307;DHT22;3186;54.062;9.962;2023-02-17T03:34:16;8.60;99.90
6307;DHT22;3186;54.062;9.962;2023-02-17T03:36:42;8.60;99.90
6307;DHT22;3186;54.062;9.962;2023-02-17T03:39:08;8.80;99.90
6307;DHT22;3186;54.062;9.962;2023-02-17T03:41:34;8.70;99.90
6307;DHT22;3186;54.062;9.962;2023-02-17T03:44:00;8.80;99.90
6307;DHT22;3186;54.062;9.962;2023-02-17T03:46:26;8.80;99.90
6307;DHT22;3186;54.062;9.962;2023-02-17T03:48:52;8.70;99.90
6307;DHT22;3186;54.062;9.962;2023-02-17T03:51:20;8.80;99.90
6307;DHT22;3186;54.062;9.962;2023-02-17T03:53:47;8.70;99.90
6307;DHT22;3186;54.062;9.962;2023-02-17T03:56:13;8.70;99.90
6307;DHT22;3186;54.062;9.962;2023-02-17T03:58:40;8.60;99.90
6307;DHT22;3186;54.062;9.962;2023-02-17T04:01:08;8.80;99.90
6307;DHT22;3186;54.062;9.962;2023-02-17T04:03:35;8.80;99.90
6307;DHT22;3186;54.062;9.962;2023-02-17T04:06:01;8.80;99.90
6307;DHT22;3186;54.062;9.962;2023-02-17T04:08:28;8.90;99.90
6307;DHT22;3186;54.062;9.962;2023-02-17T04:10:56;8.80;99.90
6307;DHT22;3186;54.062;9.962;2023-02-17T04:13:22;8.90;99.90
6307;DHT22;3186;54.062;9.962;2023-02-17T04:15:49;8.90;99.90
6307;DHT22;3186;54.062;9.962;2023-02-17T04:18:15;8.90;99.90
6307;DHT22;3186;54.062;9.962;2023-02-17T04:20:42;8.90;99.90
6307;DHT22;3186;54.062;9.962;2023-02-17T04:23:09;9.00;99.90
6307;DHT22;3186;54.062;9.962;2023-02-17T04:25:36;8.90;99.90
6307;DHT22;3186;54.062;9.962;2023-02-17T04:28:03;8.90;99.90
6307;DHT22;3186;54.062;9.962;2023-02-17T04:30:29;8.90;99.90
6307;DHT22;3186;54.062;9.962;2023-02-17T04:32:55;9.00;99.90
6307;DHT22;3186;54.062;9.962;2023-02-17T04:35:21;9.00;99.90
6307;DHT22;3186;54.062;9.962;2023-02-17T04:37:47;9.00;99.90
6307;DHT22;3186;54.062;9.962;2023-02-17T04:40:13;9.00;99.90
6307;DHT22;3186;54.062;9.962;2023-02-17T04:42:39;9.00;99.90
6307;DHT22;3186;54.062;9.962;2023-02-17T04:45:05;9.00;99.90
6307;DHT22;3186;54.062;9.962;2023-02-17T04:47:31;8.90;99.90
6307;DHT22;3186;54.062;9.962;2023-02-17T04:49:57;8.90;99.90
6307;DHT22;3186;54.062;9.962;2023-02-17T04:52:24;9.10;99.90
6307;DHT22;3186;54.062;9.962;2023-02-17T04:54:49;9.00;99.90
6307;DHT22;3186;54.062;9.962;2023-02-17T04:57:15;9.00;99.90
6307;DHT22;3186;54.062;9.962;2023-02-17T04:59:41;9.00;99.90
6307;DHT22;3186;54.062;9.962;2023-02-17T05:02:07;9.00;99.90
6307;DHT22;3186;54.062;9.962;2023-02-17T05:04:33;8.90;99.90
6307;DHT22;3186;54.062;9.962;2023-02-17T05:06:59;9.10;99.90
6307;DHT22;3186;54.062;9.962;2023-02-17T05:09:25;9.00;99.90
6307;DHT22;3186;54.062;9.962;2023-02-17T05:11:50;9.10;99.90
6307;DHT22;3186;54.062;9.962;2023-02-17T05:14:16;9.00;99.90
6307;DHT22;3186;54.062;9.962;2023-02-17T05:16:42;9.00;99.90
6307;DHT22;3186;54.062;9.962;2023-02-17T05:19:08;9.10;99.90
6307;DHT22;3186;54.062;9.962;2023-02-17T05:21:34;9.10;99.90
6307;DHT22;3186;54.062;9.962;2023-02-17T05:24:00;9.00;99.90
6307;DHT22;3186;54.062;9.962;2023-02-17T05:26:26;9.10;99.90
6307;DHT22;3186;54.062;9.962;2023-02-17T05:28:52;9.10;99.90
6307;DHT22;3186;54.062;9.962;2023-02-17T05:31:19;9.10;99.90
6307;DHT22;3186;54.062;9.962;2023-02-17T05:33:52;9.10;99.90
6307;DHT22;3186;54.062;9.962;2023-02-17T05:36:23;9.10;99.90
6307;DHT22;3186;54.062;9.962;2023-02-17T05:38:48;9.10;99.90
6307;DHT22;3186;54.062;9.962;2023-02-17T05:41:16;9.10;99.90
6307;DHT22;3186;54.062;9.962;2023-02-17T05:43:42;9.00;99.90
6307;DHT22;3186;54.062;9.962;2023-02-17T05:46:08;9.10;99.90
6307;DHT22;3186;54.062;9.962;2023-02-17T05:48:34;9.20;99.90
6307;DHT22;3186;54.062;9.962;2023-02-17T05:51:00;9.20;99.90
6307;DHT22;3186;54.062;9.962;2023-02-17T05:53:26;9.20;99.90
6307;DHT22;3186;54.062;9.962;2023-02-17T05:55:52;9.20;99.90
6307;DHT22;3186;54.062;9.962;2023-02-17T05:58:17;9.20;99.90
6307;DHT22;3186;54.062;9.962;2023-02-17T06:00:44;9.20;99.90
6307;DHT22;3186;54.062;9.962;2023-02-17T06:03:13;9.30;99.90
6307;DHT22;3186;54.062;9.962;2023-02-17T06:05:39;9.30;99.90
6307;DHT22;3186;54.062;9.962;2023-02-17T06:08:05;9.20;99.90
6307;DHT22;3186;54.062;9.962;2023-02-17T06:10:31;9.20;99.90
6307;DHT22;3186;54.062;9.962;2023-02-17T06:12:57;9.20;99.90
6307;DHT22;3186;54.062;9.962;2023-02-17T06:15:23;10.60;99.90
6307;DHT22;3186;54.062;9.962;2023-02-17T06:17:48;9.20;99.90
6307;DHT22;3186;54.062;9.962;2023-02-17T06:20:14;9.20;99.90
6307;DHT22;3186;54.062;9.962;2023-02-17T06:22:41;9.30;99.90
6307;DHT22;3186;54.062;9.962;2023-02-17T06:25:07;9.30;99.90
6307;DHT22;3186;54.062;9.962;2023-02-17T06:27:33;9.20;99.90
6307;DHT22;3186;54.062;9.962;2023-02-17T06:29:59;9.30;99.90
6307;DHT22;3186;54.062;9.962;2023-02-17T06:32:24;9.30;99.90
6307;DHT22;3186;54.062;9.962;2023-02-17T06:34:50;9.30;99.90
6307;DHT22;3186;54.062;9.962;2023-02-17T06:37:16;9.30;99.90
6307;DHT22;3186;54.062;9.962;2023-02-17T06:39:42;9.10;99.90
6307;DHT22;3186;54.062;9.962;2023-02-17T06:42:07;9.20;99.90
6307;DHT22;3186;54.062;9.962;2023-02-17T06:44:33;9.30;99.90
6307;DHT22;3186;54.062;9.962;2023-02-17T06:46:59;9.30;99.90
6307;DHT22;3186;54.062;9.962;2023-02-17T06:49:25;9.30;99.90
6307;DHT22;3186;54.062;9.962;2023-02-17T06:51:51;9.40;99.90
6307;DHT22;3186;54.062;9.962;2023-02-17T06:54:16;9.30;99.90
6307;DHT22;3186;54.062;9.962;2023-02-17T06:56:42;9.40;99.90
6307;DHT22;3186;54.062;9.962;2023-02-17T06:59:08;9.40;99.90
6307;DHT22;3186;54.062;9.962;2023-02-17T07:01:34;9.30;99.90
6307;DHT22;3186;54.062;9.962;2023-02-17T07:04:00;9.30;99.90
6307;DHT22;3186;54.062;9.962;2023-02-17T07:06:26;9.40;99.90
6307;DHT22;3186;54.062;9.962;2023-02-17T07:08:52;9.30;99.90
6307;DHT22;3186;54.062;9.962;2023-02-17T07:11:18;9.30;99.90
6307;DHT22;3186;54.062;9.962;2023-02-17T07:13:44;9.40;99.90
6307;DHT22;3186;54.062;9.962;2023-02-17T07:16:11;9.30;99.90
6307;DHT22;3186;54.062;9.962;2023-02-17T07:18:39;9.30;99.90
6307;DHT22;3186;54.062;9.962;2023-02-17T07:21:06;9.30;99.90
6307;DHT22;3186;54.062;9.962;2023-02-17T07:23:32;9.30;99.90
6307;DHT22;3186;54.062;9.962;2023-02-17T07:26:05;9.30;99.90
6307;DHT22;3186;54.062;9.962;2023-02-17T07:28:32;9.30;99.90
6307;DHT22;3186;54.062;9.962;2023-02-17T07:31:07;9.40;99.90
6307;DHT22;3186;54.062;9.962;2023-02-17T07:33:34;9.30;99.90
6307;DHT22;3186;54.062;9.962;2023-02-17T07:36:08;9.30;99.90
6307;DHT22;3186;54.062;9.962;2023-02-17T07:38:34;9.30;99.90
6307;DHT22;3186;54.062;9.962;2023-02-17T07:41:09;9.40;99.90
6307;DHT22;3186;54.062;9.962;2023-02-17T07:43:36;9.40;99.90
6307;DHT22;3186;54.062;9.962;2023-02-17T07:46:03;9.40;99.90
6307;DHT22;3186;54.062;9.962;2023-02-17T07:48:29;9.40;99.90
6307;DHT22;3186;54.062;9.962;2023-02-17T07:50:55;9.40;99.90
6307;DHT22;3186;54.062;9.962;2023-02-17T07:53:21;9.40;99.90
6307;DHT22;3186;54.062;9.962;2023-02-17T07:55:47;9.40;99.90
6307;DHT22;3186;54.062;9.962;2023-02-17T07:58:13;9.40;99.90
6307;DHT22;3186;54.062;9.962;2023-02-17T08:00:39;9.40;99.90
6307;DHT22;3186;54.062;9.962;2023-02-17T08:03:05;9.40;99.90
6307;DHT22;3186;54.062;9.962;2023-02-17T08:05:30;9.30;99.90
6307;DHT22;3186;54.062;9.962;2023-02-17T08:07:56;9.40;99.90
6307;DHT22;3186;54.062;9.962;2023-02-17T08:10:40;9.40;99.90
6307;DHT22;3186;54.062;9.962;2023-02-17T08:13:26;9.50;99.90
6307;DHT22;3186;54.062;9.962;2023-02-17T08:15:52;9.50;99.90
6307;DHT22;3186;54.062;9.962;2023-02-17T08:18:18;9.40;99.90
6307;DHT22;3186;54.062;9.962;2023-02-17T08:20:44;9.40;99.90
6307;DHT22;3186;54.062;9.962;2023-02-17T08:23:09;9.40;99.90
6307;DHT22;3186;54.062;9.962;2023-02-17T08:25:36;9.40;99.90
6307;DHT22;3186;54.062;9.962;2023-02-17T08:28:03;9.30;99.90
6307;DHT22;3186;54.062;9.962;2023-02-17T08:30:30;9.40;99.90
6307;DHT22;3186;54.062;9.962;2023-02-17T08:32:56;9.50;99.90
6307;DHT22;3186;54.062;9.962;2023-02-17T08:35:22;9.50;99.90
6307;DHT22;3186;54.062;9.962;2023-02-17T08:37:49;9.50;99.90
6307;DHT22;3186;54.062;9.962;2023-02-17T08:40:16;9.30;99.90
6307;DHT22;3186;54.062;9.962;2023-02-17T08:42:42;9.40;99.90
6307;DHT22;3186;54.062;9.962;2023-02-17T08:45:09;9.50;99.90
6307;DHT22;3186;54.062;9.962;2023-02-17T08:47:36;9.40;99.90
6307;DHT22;3186;54.062;9.962;2023-02-17T08:50:04;9.40;99.90
6307;DHT22;3186;54.062;9.962;2023-02-17T08:52:30;9.40;99.90
6307;DHT22;3186;54.062;9.962;2023-02-17T08:54:56;9.40;99.90
6307;DHT22;3186;54.062;9.962;2023-02-17T08:57:22;9.50;99.90
6307;DHT22;3186;54.062;9.962;2023-02-17T08:59:48;9.40;99.90
6307;DHT22;3186;54.062;9.962;2023-02-17T09:02:14;9.50;99.90
6307;DHT22;3186;54.062;9.962;2023-02-17T09:04:40;9.40;99.90
6307;DHT22;3186;54.062;9.962;2023-02-17T09:07:12;9.40;99.90
6307;DHT22;3186;54.062;9.962;2023-02-17T09:09:39;9.40;99.90
6307;DHT22;3186;54.062;9.962;2023-02-17T09:12:06;9.40;99.90
6307;DHT22;3186;54.062;9.962;2023-02-17T09:14:32;9.40;99.90
6307;DHT22;3186;54.062;9.962;2023-02-17T09:16:58;9.40;99.90
6307;DHT22;3186;54.062;9.962;2023-02-17T09:19:25;9.40;99.90
6307;DHT22;3186;54.062;9.962;2023-02-17T09:21:51;9.40;99.90
6307;DHT22;3186;54.062;9.962;2023-02-17T09:24:18;9.50;99.90
6307;DHT22;3186;54.062;9.962;2023-02-17T09:26:44;9.50;99.90
6307;DHT22;3186;54.062;9.962;2023-02-17T09:29:10;9.50;99.90
6307;DHT22;3186;54.062;9.962;2023-02-17T09:31:36;9.40;99.90
6307;DHT22;3186;54.062;9.962;2023-02-17T09:34:02;9.50;99.90
6307;DHT22;3186;54.062;9.962;2023-02-17T09:36:32;9.50;99.90
6307;DHT22;3186;54.062;9.962;2023-02-17T09:38:58;9.50;99.90
6307;DHT22;3186;54.062;9.962;2023-02-17T09:43:57;9.50;99.90
6307;DHT22;3186;54.062;9.962;2023-02-17T09:46:35;9.60;99.90
6307;DHT22;3186;54.062;9.962;2023-02-17T09:49:16;9.50;99.90
6307;DHT22;3186;54.062;9.962;2023-02-17T09:56:40;9.50;99.90
6307;DHT22;3186;54.062;9.962;2023-02-17T09:59:19;9.60;99.90
6307;DHT22;3186;54.062;9.962;2023-02-17T10:01:47;9.60;99.90
6307;DHT22;3186;54.062;9.962;2023-02-17T10:04:30;9.60;99.90
6307;DHT22;3186;54.062;9.962;2023-02-17T10:07:01;9.60;99.90
6307;DHT22;3186;54.062;9.962;2023-02-17T10:09:41;9.70;99.90
6307;DHT22;3186;54.062;9.962;2023-02-17T10:12:48;9.60;99.90
6307;DHT22;3186;54.062;9.962;2023-02-17T10:15:10;9.70;99.90
6307;DHT22;3186;54.062;9.962;2023-02-17T10:23:25;9.80;99.90
6307;DHT22;3186;54.062;9.962;2023-02-17T10:26:03;9.70;99.90
6307;DHT22;3186;54.062;9.962;2023-02-17T10:31:42;9.70;99.90
6307;DHT22;3186;54.062;9.962;2023-02-17T10:39:46;9.80;99.90
6307;DHT22;3186;54.062;9.962;2023-02-17T10:42:33;9.80;99.90
6307;DHT22;3186;54.062;9.962;2023-02-17T10:45:03;9.80;99.90
6307;DHT22;3186;54.062;9.962;2023-02-17T10:47:30;9.80;99.90
6307;DHT22;3186;54.062;9.962;2023-02-17T10:49:58;9.80;99.90
6307;DHT22;3186;54.062;9.962;2023-02-17T10:52:37;9.80;99.90
6307;DHT22;3186;54.062;9.962;2023-02-17T10:58:12;9.90;99.90
6307;DHT22;3186;54.062;9.962;2023-02-17T11:00:40;9.90;99.90
6307;DHT22;3186;54.062;9.962;2023-02-17T11:03:25;9.80;99.90
6307;DHT22;3186;54.062;9.962;2023-02-17T11:06:00;9.80;99.90
6307;DHT22;3186;54.062;9.962;2023-02-17T11:08:44;9.80;99.90
6307;DHT22;3186;54.062;9.962;2023-02-17T11:11:18;9.90;99.90
6307;DHT22;3186;54.062;9.962;2023-02-17T11:16:43;9.80;99.90
6307;DHT22;3186;54.062;9.962;2023-02-17T11:19:36;9.90;99.90
6307;DHT22;3186;54.062;9.962;2023-02-17T11:22:05;9.90;99.90
6307;DHT22;3186;54.062;9.962;2023-02-17T11:24:33;10.00;99.90
6307;DHT22;3186;54.062;9.962;2023-02-17T11:27:03;9.80;99.90
6307;DHT22;3186;54.062;9.962;2023-02-17T11:29:30;9.90;99.90
6307;DHT22;3186;54.062;9.962;2023-02-17T11:32:00;10.00;99.90
6307;DHT22;3186;54.062;9.962;2023-02-17T11:34:30;9.90;99.90
6307;DHT22;3186;54.062;9.962;2023-02-17T11:39:44;10.10;99.90
6307;DHT22;3186;54.062;9.962;2023-02-17T11:44:48;10.10;99.90
6307;DHT22;3186;54.062;9.962;2023-02-17T11:50:28;10.10;99.90
6307;DHT22;3186;54.062;9.962;2023-02-17T12:04:31;10.20;99.90
6307;DHT22;3186;54.062;9.962;2023-02-17T12:23:45;10.20;99.90
6307;DHT22;3186;54.062;9.962;2023-02-17T12:37:03;10.20;99.90
6307;DHT22;3186;54.062;9.962;2023-02-17T12:42:09;10.30;99.90
6307;DHT22;3186;54.062;9.962;2023-02-17T12:44:41;10.30;99.90
6307;DHT22;3186;54.062;9.962;2023-02-17T12:47:15;10.20;99.90
6307;DHT22;3186;54.062;9.962;2023-02-17T12:50:04;10.20;99.90
6307;DHT22;3186;54.062;9.962;2023-02-17T12:52:38;10.30;99.90
6307;DHT22;3186;54.062;9.962;2023-02-17T12:55:13;10.20;99.90
6307;DHT22;3186;54.062;9.962;2023-02-17T13:00:42;10.20;99.90
6307;DHT22;3186;54.062;9.962;2023-02-17T13:03:09;10.20;99.90
6307;DHT22;3186;54.062;9.962;2023-02-17T13:05:40;10.20;99.90
6307;DHT22;3186;54.062;9.962;2023-02-17T13:08:22;10.20;99.90
6307;DHT22;3186;54.062;9.962;2023-02-17T13:11:05;10.20;99.90
6307;DHT22;3186;54.062;9.962;2023-02-17T13:13:33;10.20;99.90
6307;DHT22;3186;54.062;9.962;2023-02-17T13:16:11;10.20;99.90
6307;DHT22;3186;54.062;9.962;2023-02-17T13:18:43;10.20;99.90
6307;DHT22;3186;54.062;9.962;2023-02-17T13:26:30;10.10;99.90
6307;DHT22;3186;54.062;9.962;2023-02-17T13:34:28;10.30;99.90
6307;DHT22;3186;54.062;9.962;2023-02-17T13:36:54;10.30;99.90
6307;DHT22;3186;54.062;9.962;2023-02-17T13:41:58;10.30;99.90
6307;DHT22;3186;54.062;9.962;2023-02-17T13:44:39;10.30;99.90
6307;DHT22;3186;54.062;9.962;2023-02-17T13:47:28;10.30;99.90
6307;DHT22;3186;54.062;9.962;2023-02-17T13:49:55;10.30;99.90
6307;DHT22;3186;54.062;9.962;2023-02-17T13:52:24;10.30;99.90
6307;DHT22;3186;54.062;9.962;2023-02-17T13:54:58;10.20;99.90
6307;DHT22;3186;54.062;9.962;2023-02-17T13:57:31;10.20;99.90
6307;DHT22;3186;54.062;9.962;2023-02-17T14:08:13;10.20;99.90
6307;DHT22;3186;54.062;9.962;2023-02-17T14:10:41;10.20;99.90
6307;DHT22;3186;54.062;9.962;2023-02-17T14:13:10;10.20;99.90
6307;DHT22;3186;54.062;9.962;2023-02-17T14:15:36;10.20;99.90
6307;DHT22;3186;54.062;9.962;2023-02-17T14:18:13;10.10;99.90
6307;DHT22;3186;54.062;9.962;2023-02-17T14:20:39;10.10;99.90
6307;DHT22;3186;54.062;9.962;2023-02-17T14:23:10;10.20;99.90
6307;DHT22;3186;54.062;9.962;2023-02-17T14:25:38;10.10;99.90
6307;DHT22;3186;54.062;9.962;2023-02-17T14:28:20;10.00;99.90
6307;DHT22;3186;54.062;9.962;2023-02-17T14:30:46;10.00;99.90
6307;DHT22;3186;54.062;9.962;2023-02-17T14:35:56;10.00;99.90
6307;DHT22;3186;54.062;9.962;2023-02-17T14:40:54;10.00;99.90
6307;DHT22;3186;54.062;9.962;2023-02-17T14:43:23;10.00;99.90
6307;DHT22;3186;54.062;9.962;2023-02-17T14:45:50;9.90;99.90
6307;DHT22;3186;54.062;9.962;2023-02-17T14:48:16;9.90;99.90
6307;DHT22;3186;54.062;9.962;2023-02-17T14:50:42;9.90;99.90
6307;DHT22;3186;54.062;9.962;2023-02-17T14:53:25;9.90;99.90
6307;DHT22;3186;54.062;9.962;2023-02-17T14:58:25;9.90;99.90
6307;DHT22;3186;54.062;9.962;2023-02-17T15:00:51;9.80;99.90
6307;DHT22;3186;54.062;9.962;2023-02-17T15:03:17;9.80;99.90
6307;DHT22;3186;54.062;9.962;2023-02-17T15:05:43;9.90;99.90
6307;DHT22;3186;54.062;9.962;2023-02-17T15:08:19;7.30;99.90
6307;DHT22;3186;54.062;9.962;2023-02-17T15:10:47;9.80;99.90
6307;DHT22;3186;54.062;9.962;2023-02-17T15:13:17;9.80;99.90
6307;DHT22;3186;54.062;9.962;2023-02-17T15:15:44;9.70;99.90
6307;DHT22;3186;54.062;9.962;2023-02-17T15:18:13;9.70;99.90
6307;DHT22;3186;54.062;9.962;2023-02-17T15:20:41;9.60;99.90
6307;DHT22;3186;54.062;9.962;2023-02-17T15:23:16;9.60;99.90
6307;DHT22;3186;54.062;9.962;2023-02-17T15:25:42;9.50;99.90
6307;DHT22;3186;54.062;9.962;2023-02-17T15:28:13;9.50;99.90
6307;DHT22;3186;54.062;9.962;2023-02-17T15:30:40;9.50;99.90
6307;DHT22;3186;54.062;9.962;2023-02-17T15:33:11;9.50;99.90
6307;DHT22;3186;54.062;9.962;2023-02-17T15:35:38;9.50;99.90
6307;DHT22;3186;54.062;9.962;2023-02-17T15:38:04;9.50;99.90
6307;DHT22;3186;54.062;9.962;2023-02-17T15:40:30;9.30;99.90
6307;DHT22;3186;54.062;9.962;2023-02-17T15:42:58;9.30;99.90
6307;DHT22;3186;54.062;9.962;2023-02-17T15:45:26;9.40;99.90
6307;DHT22;3186;54.062;9.962;2023-02-17T15:48:01;9.30;99.90
6307;DHT22;3186;54.062;9.962;2023-02-17T15:50:27;9.30;99.90
6307;DHT22;3186;54.062;9.962;2023-02-17T15:52:53;9.20;99.90
6307;DHT22;3186;54.062;9.962;2023-02-17T15:55:20;9.20;99.90
6307;DHT22;3186;54.062;9.962;2023-02-17T15:57:57;9.10;99.90
6307;DHT22;3186;54.062;9.962;2023-02-17T16:00:26;9.20;99.90
6307;DHT22;3186;54.062;9.962;2023-02-17T16:02:52;9.10;99.90
6307;DHT22;3186;54.062;9.962;2023-02-17T16:05:20;9.00;99.90
6307;DHT22;3186;54.062;9.962;2023-02-17T16:07:46;9.10;99.90
6307;DHT22;3186;54.062;9.962;2023-02-17T16:10:15;9.10;99.90
6307;DHT22;3186;54.062;9.962;2023-02-17T16:12:42;9.00;99.90
6307;DHT22;3186;54.062;9.962;2023-02-17T16:15:17;9.00;99.90
6307;DHT22;3186;54.062;9.962;2023-02-17T16:17:44;8.90;99.90
6307;DHT22;3186;54.062;9.962;2023-02-17T16:22:43;8.90;99.90
6307;DHT22;3186;54.062;9.962;2023-02-17T16:25:09;8.90;99.90
6307;DHT22;3186;54.062;9.962;2023-02-17T16:27:36;9.00;99.90
6307;DHT22;3186;54.062;9.962;2023-02-17T16:30:17;8.90;99.90
6307;DHT22;3186;54.062;9.962;2023-02-17T16:32:43;8.80;99.90
6307;DHT22;3186;54.062;9.962;2023-02-17T16:35:18;8.90;99.90
6307;DHT22;3186;54.062;9.962;2023-02-17T16:38:04;8.80;99.90
6307;DHT22;3186;54.062;9.962;2023-02-17T16:40:33;8.70;99.90
6307;DHT22;3186;54.062;9.962;2023-02-17T16:43:00;8.70;99.90
6307;DHT22;3186;54.062;9.962;2023-02-17T16:45:28;8.70;99.90
6307;DHT22;3186;54.062;9.962;2023-02-17T16:47:57;8.60;99.90
6307;DHT22;3186;54.062;9.962;2023-02-17T16:50:32;8.50;99.90
6307;DHT22;3186;54.062;9.962;2023-02-17T16:53:00;8.70;99.90
6307;DHT22;3186;54.062;9.962;2023-02-17T16:55:30;8.60;99.90
6307;DHT22;3186;54.062;9.962;2023-02-17T16:57:56;8.60;99.90
6307;DHT22;3186;54.062;9.962;2023-02-17T17:00:25;8.50;99.90
6307;DHT22;3186;54.062;9.962;2023-02-17T17:02:52;8.60;99.90
6307;DHT22;3186;54.062;9.962;2023-02-17T17:05:19;8.50;99.90
6307;DHT22;3186;54.062;9.962;2023-02-17T17:07:45;8.40;99.90
6307;DHT22;3186;54.062;9.962;2023-02-17T17:10:17;8.50;99.90
6307;DHT22;3186;54.062;9.962;2023-02-17T17:12:44;8.40;99.90
6307;DHT22;3186;54.062;9.962;2023-02-17T17:15:11;8.50;99.90
6307;DHT22;3186;54.062;9.962;2023-02-17T17:20:21;8.50;99.90
6307;DHT22;3186;54.062;9.962;2023-02-17T17:22:48;8.40;99.90
6307;DHT22;3186;54.062;9.962;2023-02-17T17:25:16;8.30;99.90
6307;DHT22;3186;54.062;9.962;2023-02-17T17:27:42;8.40;99.90
6307;DHT22;3186;54.062;9.962;2023-02-17T17:30:16;8.40;99.90
6307;DHT22;3186;54.062;9.962;2023-02-17T17:32:42;8.20;99.90
6307;DHT22;3186;54.062;9.962;2023-02-17T17:35:08;8.20;99.90
6307;DHT22;3186;54.062;9.962;2023-02-17T17:37:33;8.30;99.90
6307;DHT22;3186;54.062;9.962;2023-02-17T17:39:59;8.30;99.90
6307;DHT22;3186;54.062;9.962;2023-02-17T17:42:25;8.30;99.90
6307;DHT22;3186;54.062;9.962;2023-02-17T17:44:51;8.30;99.90
6307;DHT22;3186;54.062;9.962;2023-02-17T17:47:18;8.30;99.90
6307;DHT22;3186;54.062;9.962;2023-02-17T17:49:45;8.20;99.90
6307;DHT22;3186;54.062;9.962;2023-02-17T17:52:11;8.30;99.90
6307;DHT22;3186;54.062;9.962;2023-02-17T17:54:40;8.20;99.90
6307;DHT22;3186;54.062;9.962;2023-02-17T17:57:06;8.30;99.90
6307;DHT22;3186;54.062;9.962;2023-02-17T17:59:32;8.20;99.90
6307;DHT22;3186;54.062;9.962;2023-02-17T18:01:58;8.20;99.90
6307;DHT22;3186;54.062;9.962;2023-02-17T18:04:24;9.70;99.90
6307;DHT22;3186;54.062;9.962;2023-02-17T18:06:51;8.20;99.90
6307;DHT22;3186;54.062;9.962;2023-02-17T18:09:20;8.20;99.90
6307;DHT22;3186;54.062;9.962;2023-02-17T18:11:48;8.20;99.90
6307;DHT22;3186;54.062;9.962;2023-02-17T18:14:15;8.20;99.90
6307;DHT22;3186;54.062;9.962;2023-02-17T18:16:43;8.20;99.90
6307;DHT22;3186;54.062;9.962;2023-02-17T18:19:09;8.20;99.90
6307;DHT22;3186;54.062;9.962;2023-02-17T18:21:36;8.20;99.90
6307;DHT22;3186;54.062;9.962;2023-02-17T18:24:04;8.20;99.90
6307;DHT22;3186;54.062;9.962;2023-02-17T18:26:31;8.10;99.90
6307;DHT22;3186;54.062;9.962;2023-02-17T18:28:57;8.10;99.90
6307;DHT22;3186;54.062;9.962;2023-02-17T18:31:23;8.10;99.90
6307;DHT22;3186;54.062;9.962;2023-02-17T18:33:51;8.10;99.90
6307;DHT22;3186;54.062;9.962;2023-02-17T18:36:21;8.10;99.90
6307;DHT22;3186;54.062;9.962;2023-02-17T18:38:47;8.20;99.90
6307;DHT22;3186;54.062;9.962;2023-02-17T18:41:23;8.10;99.90
6307;DHT22;3186;54.062;9.962;2023-02-17T18:43:50;8.10;99.90
6307;DHT22;3186;54.062;9.962;2023-02-17T18:46:16;8.00;99.90
6307;DHT22;3186;54.062;9.962;2023-02-17T18:48:42;8.00;99.90
6307;DHT22;3186;54.062;9.962;2023-02-17T18:51:09;8.00;99.90
6307;DHT22;3186;54.062;9.962;2023-02-17T18:53:36;8.00;99.90
6307;DHT22;3186;54.062;9.962;2023-02-17T18:56:02;7.90;99.90
6307;DHT22;3186;54.062;9.962;2023-02-17T18:58:28;7.90;99.90
6307;DHT22;3186;54.062;9.962;2023-02-17T19:00:57;8.00;99.90